createdAt,value
2023-04-27T00:01:06.417Z,598.4
2023-04-27T00:02:13.188Z,596.6
2023-04-27T00:04:25.385Z,597.2
2023-04-27T00:06:04.112Z,597.5
2023-04-27T00:07:42.858Z,595.6
2023-04-27T00:08:50.070Z,600.8
2023-04-27T00:09:57.262Z,597
2023-04-27T00:11:36.014Z,599.3
2023-04-27T00:13:14.750Z,597.4
2023-04-27T00:14:53.511Z,596.1
2023-04-27T00:16:32.233Z,598
2023-04-27T00:18:10.986Z,596.6
2023-04-27T00:19:49.725Z,598.1
2023-04-27T00:21:28.486Z,598.3
2023-04-27T00:23:07.207Z,597.2
2023-04-27T00:25:18.065Z,600.3
2023-04-27T00:27:13.814Z,597.5
2023-04-27T00:28:19.725Z,598
2023-04-27T00:29:26.441Z,597.6
2023-04-27T00:30:33.159Z,597.1
2023-04-27T00:31:39.884Z,596.4
2023-04-27T00:32:46.613Z,598.7
2023-04-27T00:33:53.334Z,598.2
2023-04-27T00:35:00.085Z,599.9
2023-04-27T00:36:06.775Z,598.1
2023-04-27T00:37:13.499Z,597.3
2023-04-27T00:38:20.242Z,599.2
2023-04-27T00:39:26.970Z,597.4
2023-04-27T00:40:33.678Z,599
2023-04-27T00:41:40.407Z,597.7
2023-04-27T00:42:47.122Z,597.1
2023-04-27T00:43:53.851Z,597.1
2023-04-27T00:45:00.560Z,597.9
2023-04-27T00:46:07.294Z,598.5
2023-04-27T00:47:14.007Z,597.5
2023-04-27T00:48:20.728Z,598.5
2023-04-27T00:49:27.449Z,597.7
2023-04-27T00:50:34.240Z,596.2
2023-04-27T00:51:41.018Z,597.3
2023-04-27T00:52:47.730Z,596.1
2023-04-27T00:53:54.449Z,597.3
2023-04-27T00:55:01.288Z,598.2
2023-04-27T00:56:08.007Z,597.4
2023-04-27T00:57:14.729Z,598.3
2023-04-27T00:58:21.452Z,598.2
2023-04-27T00:59:28.168Z,597.7
2023-04-27T01:00:34.904Z,595.5
2023-04-27T01:01:41.629Z,598.5
2023-04-27T01:02:48.385Z,596.5
2023-04-27T01:03:55.085Z,597.7
2023-04-27T01:05:01.801Z,595.3
2023-04-27T01:06:08.522Z,595.2
2023-04-27T01:07:15.239Z,596.6
2023-04-27T01:08:21.959Z,597.1
2023-04-27T01:09:55.630Z,596.7
2023-04-27T01:11:34.354Z,596.4
2023-04-27T01:13:13.097Z,598.6
2023-04-27T01:14:51.874Z,596.5
2023-04-27T01:16:30.596Z,597.1
2023-04-27T01:17:37.799Z,597.7
2023-04-27T01:18:44.989Z,597.7
2023-04-27T01:20:23.734Z,598.1
2023-04-27T01:22:02.492Z,598.7
2023-04-27T01:23:41.233Z,596.4
2023-04-27T01:25:19.970Z,594.7
2023-04-27T01:26:58.730Z,595.1
2023-04-27T01:28:37.475Z,599
2023-04-27T01:32:45.523Z,596.1
2023-04-27T01:34:04.858Z,599
2023-04-27T01:36:01.951Z,596.8
2023-04-27T01:37:40.688Z,598.2
2023-04-27T01:39:19.435Z,595.8
2023-04-27T01:40:58.186Z,595.8
2023-04-27T01:42:36.939Z,597.3
2023-04-27T01:44:15.674Z,597
2023-04-27T01:45:54.435Z,597.4
2023-04-27T01:47:33.168Z,597
2023-04-27T01:49:11.982Z,597.7
2023-04-27T01:50:50.649Z,596.5
2023-04-27T01:51:57.856Z,596.4
2023-04-27T01:53:05.068Z,598.1
2023-04-27T01:54:43.804Z,598.3
2023-04-27T01:56:22.546Z,597.3
2023-04-27T01:58:01.352Z,597.5
2023-04-27T01:59:40.045Z,596.2
2023-04-27T02:01:18.800Z,595.8
2023-04-27T02:02:57.551Z,595.3
2023-04-27T02:04:36.282Z,596.4
2023-04-27T02:06:15.031Z,596.9
2023-04-27T02:07:53.786Z,596.8
2023-04-27T02:09:00.979Z,595.7
2023-04-27T02:10:08.183Z,595.3
2023-04-27T02:11:46.957Z,596.1
2023-04-27T02:15:54.924Z,596.5
2023-04-27T02:19:11.441Z,597.6
2023-04-27T02:20:58.276Z,596.5
2023-04-27T02:22:37.028Z,596.3
2023-04-27T02:24:15.772Z,597.8
2023-04-27T02:25:27.992Z,596.8
2023-04-27T02:26:35.172Z,596.4
2023-04-27T02:28:13.924Z,593.8
2023-04-27T02:29:52.676Z,595.8
2023-04-27T02:31:31.425Z,595.3
2023-04-27T02:33:10.162Z,594.6
2023-04-27T02:34:48.910Z,597.3
2023-04-27T02:36:27.660Z,596.7
2023-04-27T02:38:06.401Z,597.4
2023-04-27T02:39:45.147Z,595.8
2023-04-27T02:41:23.897Z,598.6
2023-04-27T02:42:31.096Z,595.5
2023-04-27T02:43:38.306Z,597.3
2023-04-27T02:45:17.045Z,596.4
2023-04-27T02:46:55.798Z,595.4
2023-04-27T02:48:34.528Z,596
2023-04-27T02:50:13.265Z,596.5
2023-04-27T02:51:52.019Z,594.5
2023-04-27T02:53:30.763Z,597
2023-04-27T02:55:09.503Z,596.1
2023-04-27T02:56:48.257Z,598.4
2023-04-27T02:58:59.068Z,596
2023-04-27T03:00:56.309Z,598.6
2023-04-27T03:04:12.826Z,596.4
2023-04-27T03:05:59.670Z,597
2023-04-27T03:07:38.405Z,597.8
2023-04-27T03:09:17.154Z,595.6
2023-04-27T03:10:55.893Z,596.2
2023-04-27T03:12:34.633Z,593.6
2023-04-27T03:14:13.396Z,594.6
2023-04-27T03:15:52.134Z,598.1
2023-04-27T03:17:30.873Z,598.3
2023-04-27T03:19:09.613Z,595.5
2023-04-27T03:20:48.403Z,595.9
2023-04-27T03:22:27.109Z,595.8
2023-04-27T03:24:05.862Z,593.7
2023-04-27T03:25:44.619Z,595.4
2023-04-27T03:27:23.357Z,594
2023-04-27T03:29:02.097Z,594.6
2023-04-27T03:30:40.861Z,596.1
2023-04-27T03:31:52.062Z,595.8
2023-04-27T03:32:59.264Z,595.1
2023-04-27T03:34:38.005Z,597.2
2023-04-27T03:36:16.758Z,595.4
2023-04-27T03:37:55.511Z,596.4
2023-04-27T03:39:34.245Z,596.4
2023-04-27T03:41:12.997Z,595.5
2023-04-27T03:42:51.765Z,595.2
2023-04-27T03:46:59.762Z,593.4
2023-04-27T03:48:18.616Z,596.4
2023-04-27T03:50:15.745Z,596.3
2023-04-27T03:51:22.420Z,595.6
2023-04-27T03:52:29.146Z,595
2023-04-27T03:53:35.880Z,597.1
2023-04-27T03:54:42.621Z,596.1
2023-04-27T03:55:49.325Z,593.8
2023-04-27T03:56:56.056Z,596.2
2023-04-27T03:58:02.768Z,596.1
2023-04-27T03:59:09.489Z,594
2023-04-27T04:00:16.213Z,596.3
2023-04-27T04:01:22.937Z,594.8
2023-04-27T04:02:29.660Z,594.3
2023-04-27T04:03:36.375Z,595.8
2023-04-27T04:04:43.095Z,595.7
2023-04-27T04:05:49.825Z,595.4
2023-04-27T04:06:56.548Z,593.8
2023-04-27T04:08:03.276Z,595.9
2023-04-27T04:09:09.991Z,596.3
2023-04-27T04:10:16.719Z,596.5
2023-04-27T04:11:23.448Z,594.6
2023-04-27T04:12:30.179Z,594.8
2023-04-27T04:13:36.893Z,596.8
2023-04-27T04:14:43.643Z,594.8
2023-04-27T04:15:50.350Z,595.8
2023-04-27T04:18:02.593Z,595.2
2023-04-27T04:19:41.325Z,594.6
2023-04-27T04:21:20.067Z,594.6
2023-04-27T04:22:57.667Z,594.4
2023-04-27T04:24:04.916Z,595
2023-04-27T04:25:43.663Z,594.4
2023-04-27T04:27:22.448Z,596.3
2023-04-27T04:29:01.128Z,595.3
2023-04-27T04:30:39.869Z,595.1
2023-04-27T04:32:18.608Z,593.1
2023-04-27T04:33:57.347Z,596.2
2023-04-27T04:35:36.087Z,595.6
2023-04-27T04:37:14.832Z,592.7
2023-04-27T04:39:25.688Z,595.3
2023-04-27T04:42:28.138Z,595
2023-04-27T04:43:34.913Z,593.9
2023-04-27T04:44:41.695Z,594.7
2023-04-27T04:45:48.572Z,593.5
2023-04-27T04:46:55.251Z,595.6
2023-04-27T04:48:02.029Z,595.2
2023-04-27T04:49:08.810Z,595.4
2023-04-27T04:50:15.573Z,594.6
2023-04-27T04:51:22.367Z,595.5
2023-04-27T04:52:29.134Z,594.5
2023-04-27T04:53:35.917Z,595.4
2023-04-27T04:54:42.706Z,594.7
2023-04-27T04:55:49.479Z,595.5
2023-04-27T04:56:56.264Z,596.7
2023-04-27T04:58:03.033Z,596.1
2023-04-27T04:59:09.817Z,594.8
2023-04-27T05:00:16.602Z,596.2
2023-04-27T05:01:23.360Z,594.1
2023-04-27T05:02:30.147Z,595.3
2023-04-27T05:03:36.914Z,596.1
2023-04-27T05:04:43.705Z,596.2
2023-04-27T05:05:50.493Z,596.7
2023-04-27T05:06:57.265Z,594.8
2023-04-27T05:08:04.036Z,593.1
2023-04-27T05:10:16.266Z,596.8
2023-04-27T05:11:55.003Z,597
2023-04-27T05:13:02.249Z,595
2023-04-27T05:14:09.506Z,595.4
2023-04-27T05:15:48.249Z,593.7
2023-04-27T05:17:26.981Z,594.8
2023-04-27T05:19:05.709Z,591.7
2023-04-27T05:20:44.457Z,594.9
2023-04-27T05:22:23.199Z,593.4
2023-04-27T05:24:01.946Z,595
2023-04-27T05:25:40.682Z,595.8
2023-04-27T05:27:19.430Z,594.6
2023-04-27T05:28:58.240Z,596.2
2023-04-27T05:30:37.880Z,593.1
2023-04-27T05:33:53.873Z,595.4
2023-04-27T05:34:59.782Z,595.2
2023-04-27T05:36:06.529Z,594.4
2023-04-27T05:37:13.216Z,595.6
2023-04-27T05:38:19.944Z,594.5
2023-04-27T05:39:26.721Z,596.2
2023-04-27T05:40:33.443Z,594.4
2023-04-27T05:41:40.195Z,595.1
2023-04-27T05:42:46.885Z,595.8
2023-04-27T05:43:53.621Z,595.7
2023-04-27T05:45:00.344Z,594.5
2023-04-27T05:46:07.076Z,593.9
2023-04-27T05:47:13.791Z,594.5
2023-04-27T05:48:20.518Z,594.5
2023-04-27T05:49:27.239Z,595.5
2023-04-27T05:50:33.964Z,595.1
2023-04-27T05:51:40.688Z,595.8
2023-04-27T05:52:47.445Z,593.7
2023-04-27T05:53:54.133Z,596.1
2023-04-27T05:55:00.863Z,593.9
2023-04-27T05:56:07.589Z,595.9
2023-04-27T05:57:14.310Z,595
2023-04-27T05:58:21.035Z,595.3
2023-04-27T06:00:34.504Z,593.9
2023-04-27T06:01:41.281Z,597
2023-04-27T06:02:47.953Z,594.2
2023-04-27T06:05:01.397Z,594.8
2023-04-27T06:06:08.124Z,595.7
2023-04-27T06:07:14.841Z,592.7
2023-04-27T06:09:28.359Z,595.6
2023-04-27T06:10:35.014Z,594.7
2023-04-27T06:11:41.756Z,592.9
2023-04-27T06:12:48.493Z,596.2
2023-04-27T06:13:55.211Z,594.1
2023-04-27T06:15:01.929Z,595.1
2023-04-27T06:17:14.166Z,596.4
2023-04-27T06:18:52.948Z,596.7
2023-04-27T06:20:31.652Z,595.6
2023-04-27T06:21:38.851Z,594.8
2023-04-27T06:22:46.065Z,595.3
2023-04-27T06:24:24.818Z,595.3
2023-04-27T06:26:03.557Z,594.7
2023-04-27T06:27:42.301Z,595.9
2023-04-27T06:29:21.051Z,597
2023-04-27T06:30:59.813Z,595.5
2023-04-27T06:32:38.548Z,593.3
2023-04-27T06:34:17.351Z,593.3
2023-04-27T06:35:56.037Z,594.1
2023-04-27T06:38:06.864Z,595.4
2023-04-27T06:40:02.546Z,595.6
2023-04-27T06:41:09.343Z,595.4
2023-04-27T06:42:16.047Z,594.5
2023-04-27T06:43:22.776Z,595.3
2023-04-27T06:44:29.444Z,594.3
2023-04-27T06:45:36.217Z,593.9
2023-04-27T06:46:42.894Z,595.8
2023-04-27T06:47:49.643Z,595.2
2023-04-27T06:48:56.345Z,595.2
2023-04-27T06:50:03.057Z,595.5
2023-04-27T06:51:09.786Z,593.8
2023-04-27T06:52:16.515Z,596.3
2023-04-27T06:53:23.224Z,597.9
2023-04-27T06:54:29.992Z,594.8
2023-04-27T06:55:36.689Z,596.4
2023-04-27T06:56:43.531Z,594.8
2023-04-27T06:57:50.149Z,594.9
2023-04-27T06:58:56.969Z,595.4
2023-04-27T07:00:03.585Z,595.2
2023-04-27T07:01:10.341Z,595.3
2023-04-27T07:02:17.044Z,598
2023-04-27T07:03:23.755Z,596.1
2023-04-27T07:04:30.482Z,595.6
2023-04-27T07:05:37.237Z,596.9
2023-04-27T07:06:43.949Z,594.9
2023-04-27T07:08:56.216Z,595.7
2023-04-27T07:10:34.904Z,595.5
2023-04-27T07:11:42.096Z,595
2023-04-27T07:12:49.299Z,595.9
2023-04-27T07:14:28.100Z,597
2023-04-27T07:16:06.877Z,596
2023-04-27T07:17:45.564Z,595.1
2023-04-27T07:19:24.332Z,597.4
2023-04-27T07:21:03.084Z,596.4
2023-04-27T07:22:41.857Z,595.6
2023-04-27T07:24:20.528Z,595.4
2023-04-27T07:25:59.252Z,597.2
2023-04-27T07:27:38.018Z,595
2023-04-27T07:29:17.750Z,596.2
2023-04-27T07:32:34.299Z,593.7
2023-04-27T07:34:21.102Z,593.9
2023-04-27T07:36:00.002Z,597.6
2023-04-27T07:37:38.774Z,595.8
2023-04-27T07:39:17.490Z,594.8
2023-04-27T07:40:56.218Z,594
2023-04-27T07:42:34.816Z,595.6
2023-04-27T07:44:13.621Z,596.2
2023-04-27T07:45:52.369Z,597.3
2023-04-27T07:47:31.250Z,597.3
2023-04-27T07:49:09.817Z,595.2
2023-04-27T07:50:48.557Z,595.7
2023-04-27T07:52:27.371Z,595.5
2023-04-27T07:53:34.651Z,594.9
2023-04-27T07:54:41.759Z,597.4
2023-04-27T07:56:20.558Z,595.2
2023-04-27T07:57:59.250Z,596.8
2023-04-27T07:59:38.019Z,596.2
2023-04-27T08:01:16.760Z,597.8
2023-04-27T08:02:55.608Z,596.8
2023-04-27T08:04:34.240Z,595.1
2023-04-27T08:06:12.983Z,597.6
2023-04-27T08:07:51.713Z,597.6
2023-04-27T08:09:30.463Z,596.1
2023-04-27T08:10:37.661Z,599
2023-04-27T08:13:38.524Z,595.6
2023-04-27T08:16:55.957Z,597.8
2023-04-27T08:20:12.472Z,597.6
2023-04-27T08:21:59.300Z,597
2023-04-27T08:23:38.029Z,598.6
2023-04-27T08:25:16.814Z,596.4
2023-04-27T08:26:55.541Z,597.1
2023-04-27T08:28:02.757Z,596.8
2023-04-27T08:29:09.929Z,599.2
2023-04-27T08:30:48.700Z,598.7
2023-04-27T08:32:27.468Z,597.2
2023-04-27T08:34:06.174Z,598.4
2023-04-27T08:35:44.925Z,596.9
2023-04-27T08:37:23.661Z,596.9
2023-04-27T08:39:02.406Z,597.4
2023-04-27T08:40:41.142Z,597.2
2023-04-27T08:42:19.948Z,598.4
2023-04-27T08:43:58.699Z,597.4
2023-04-27T08:45:05.880Z,599.7
2023-04-27T08:46:13.169Z,597.9
2023-04-27T08:47:51.942Z,597.8
2023-04-27T08:49:30.618Z,597.3
2023-04-27T08:51:09.387Z,597.7
2023-04-27T08:52:48.059Z,599.4
2023-04-27T08:54:26.792Z,597.8
2023-04-27T08:56:05.561Z,600
2023-04-27T08:57:44.357Z,599.3
2023-04-27T09:01:33.907Z,600.2
2023-04-27T09:02:40.686Z,599.5
2023-04-27T09:03:47.421Z,600.3
2023-04-27T09:04:54.300Z,600.5
2023-04-27T09:06:00.910Z,598.3
2023-04-27T09:07:07.666Z,599.5
2023-04-27T09:08:14.302Z,598.9
2023-04-27T09:09:21.082Z,598.9
2023-04-27T09:10:27.877Z,600.4
2023-04-27T09:11:34.644Z,599.2
2023-04-27T09:12:41.503Z,602.2
2023-04-27T09:13:48.303Z,598.7
2023-04-27T09:14:54.990Z,598.7
2023-04-27T09:16:01.769Z,598.1
2023-04-27T09:17:08.592Z,599.6
2023-04-27T09:18:15.497Z,601.1
2023-04-27T09:19:22.252Z,600.7
2023-04-27T09:20:28.934Z,599.6
2023-04-27T09:21:35.681Z,600.2
2023-04-27T09:22:42.550Z,601.5
2023-04-27T09:23:49.366Z,598.9
2023-04-27T09:24:56.176Z,599.9
2023-04-27T09:26:02.778Z,600.6
2023-04-27T09:27:09.646Z,601.3
2023-04-27T09:29:23.004Z,601.1
2023-04-27T09:31:35.289Z,602.4
2023-04-27T09:33:14.104Z,601.8
2023-04-27T09:34:26.940Z,601.3
2023-04-27T09:35:34.203Z,600.4
2023-04-27T09:37:13.046Z,601.3
2023-04-27T09:38:51.703Z,601.1
2023-04-27T09:40:30.449Z,601.6
2023-04-27T09:42:09.199Z,601
2023-04-27T09:43:47.903Z,603.9
2023-04-27T09:45:26.651Z,602.2
2023-04-27T09:47:05.395Z,603.2
2023-04-27T09:48:44.281Z,602
2023-04-27T09:50:22.888Z,602.9
2023-04-27T09:52:02.657Z,602.4
2023-04-27T09:55:19.138Z,602.8
2023-04-27T09:57:05.967Z,602.1
2023-04-27T09:58:44.701Z,602.1
2023-04-27T10:00:23.436Z,602.9
2023-04-27T10:02:02.165Z,602.5
2023-04-27T10:03:40.907Z,602.8
2023-04-27T10:05:19.636Z,602.3
2023-04-27T10:06:58.387Z,604.1
2023-04-27T10:08:37.167Z,603.2
2023-04-27T10:10:15.862Z,604.4
2023-04-27T10:11:54.577Z,602.8
2023-04-27T10:13:33.307Z,603
2023-04-27T10:15:12.133Z,603.4
2023-04-27T10:16:19.288Z,603.7
2023-04-27T10:17:26.510Z,604.6
2023-04-27T10:19:05.193Z,605.4
2023-04-27T10:20:44.006Z,604.2
2023-04-27T10:22:22.662Z,605.2
2023-04-27T10:24:01.398Z,603.8
2023-04-27T10:25:40.153Z,605
2023-04-27T10:27:18.967Z,603.7
2023-04-27T10:28:57.717Z,602.8
2023-04-27T10:30:36.456Z,605.4
2023-04-27T10:32:15.126Z,604.5
2023-04-27T10:33:22.347Z,604.7
2023-04-27T10:36:23.127Z,604.7
2023-04-27T10:39:39.706Z,604.7
2023-04-27T10:41:34.751Z,605.9
2023-04-27T10:43:13.443Z,604.8
2023-04-27T10:44:52.160Z,606.5
2023-04-27T10:46:30.885Z,604.1
2023-04-27T10:48:09.632Z,605.8
2023-04-27T10:49:48.354Z,604.7
2023-04-27T10:50:55.747Z,604
2023-04-27T10:52:02.868Z,604.8
2023-04-27T10:53:41.725Z,605.8
2023-04-27T10:55:20.351Z,606.4
2023-04-27T10:56:59.076Z,603.3
2023-04-27T10:58:37.809Z,604.2
2023-04-27T11:00:16.540Z,606.4
2023-04-27T11:01:55.282Z,604.8
2023-04-27T11:03:34.010Z,605.4
2023-04-27T11:05:12.753Z,603.8
2023-04-27T11:06:51.562Z,604.6
2023-04-27T11:07:58.733Z,605.5
2023-04-27T11:09:06.042Z,606.7
2023-04-27T11:10:44.726Z,607.5
2023-04-27T11:12:23.489Z,606.3
2023-04-27T11:14:02.206Z,604.8
2023-04-27T11:15:40.950Z,606.1
2023-04-27T11:17:19.731Z,605.1
2023-04-27T11:21:27.716Z,606.7
2023-04-27T11:24:25.841Z,608.1
2023-04-27T11:25:33.060Z,606.1
2023-04-27T11:27:11.797Z,607.7
2023-04-27T11:28:50.609Z,606
2023-04-27T11:30:29.278Z,608.1
2023-04-27T11:32:08.013Z,607.7
2023-04-27T11:33:46.755Z,606.5
2023-04-27T11:35:25.490Z,608.7
2023-04-27T11:37:04.226Z,607.4
2023-04-27T11:38:43.103Z,608.4
2023-04-27T11:40:21.703Z,607.6
2023-04-27T11:42:00.541Z,608
2023-04-27T11:43:07.783Z,609.1
2023-04-27T11:44:15.024Z,608.7
2023-04-27T11:45:53.785Z,609.2
2023-04-27T11:47:32.557Z,607.4
2023-04-27T11:49:11.165Z,608.5
2023-04-27T11:50:49.929Z,609.1
2023-04-27T11:52:28.642Z,608.2
2023-04-27T11:54:07.514Z,608.2
2023-04-27T11:55:46.266Z,609.6
2023-04-27T11:57:24.864Z,609
2023-04-27T11:59:03.680Z,609.3
2023-04-27T12:00:10.843Z,608.9
2023-04-27T12:01:18.162Z,610
2023-04-27T12:05:26.137Z,608.2
2023-04-27T12:08:43.553Z,610.1
2023-04-27T12:12:00.060Z,608.4
2023-04-27T12:13:46.887Z,609
2023-04-27T12:15:25.616Z,609.8
2023-04-27T12:16:37.878Z,608.8
2023-04-27T12:17:45.146Z,610
2023-04-27T12:19:23.874Z,611.3
2023-04-27T12:21:02.620Z,610.6
2023-04-27T12:22:41.348Z,610
2023-04-27T12:24:20.089Z,609.2
2023-04-27T12:25:58.831Z,610.4
2023-04-27T12:27:37.555Z,609.4
2023-04-27T12:29:16.394Z,609.2
2023-04-27T12:30:55.043Z,610.4
2023-04-27T12:32:33.812Z,609.4
2023-04-27T12:33:41.044Z,608.5
2023-04-27T12:34:48.365Z,608.9
2023-04-27T12:36:27.016Z,610.4
2023-04-27T12:38:05.766Z,610.4
2023-04-27T12:39:44.499Z,609
2023-04-27T12:41:23.247Z,609.6
2023-04-27T12:43:02.067Z,610.8
2023-04-27T12:44:40.728Z,609.7
2023-04-27T12:46:19.446Z,609.8
2023-04-27T12:47:58.209Z,612.1
2023-04-27T12:49:36.932Z,611.2
2023-04-27T12:51:16.674Z,611.5
2023-04-27T12:54:32.585Z,611.7
2023-04-27T12:55:39.369Z,610.3
2023-04-27T12:56:46.087Z,610.7
2023-04-27T12:57:52.823Z,610.2
2023-04-27T12:58:59.657Z,611
2023-04-27T13:00:06.388Z,612.2
2023-04-27T13:01:13.210Z,611.6
2023-04-27T13:02:19.906Z,611.9
2023-04-27T13:03:26.677Z,609.5
2023-04-27T13:04:33.429Z,611.4
2023-04-27T13:05:40.265Z,610.9
2023-04-27T13:06:46.972Z,611.7
2023-04-27T13:07:53.774Z,612.6
2023-04-27T13:09:00.552Z,611.7
2023-04-27T13:10:07.249Z,611.2
2023-04-27T13:11:13.972Z,610.2
2023-04-27T13:12:20.690Z,611.5
2023-04-27T13:13:27.425Z,611.8
2023-04-27T13:14:34.143Z,611.6
2023-04-27T13:16:47.674Z,611.8
2023-04-27T13:17:54.379Z,612
2023-04-27T13:19:01.152Z,611
2023-04-27T13:20:07.824Z,611.3
2023-04-27T13:21:14.550Z,611.4
2023-04-27T13:23:26.744Z,611.9
2023-04-27T13:24:33.933Z,612
2023-04-27T13:25:41.146Z,611.4
2023-04-27T13:27:19.901Z,610.4
2023-04-27T13:28:58.623Z,610.4
2023-04-27T13:30:37.377Z,611.9
2023-04-27T13:32:16.104Z,611.6
2023-04-27T13:33:54.835Z,612
2023-04-27T13:35:33.586Z,612
2023-04-27T13:37:12.345Z,612.5
2023-04-27T13:38:51.247Z,612
2023-04-27T13:40:29.840Z,612
2023-04-27T13:41:37.026Z,613.1
2023-04-27T13:44:37.869Z,611.6
2023-04-27T13:47:55.299Z,611.2
2023-04-27T13:51:11.234Z,611.1
2023-04-27T13:52:17.996Z,612.2
2023-04-27T13:53:24.698Z,613.3
2023-04-27T13:54:31.487Z,610.1
2023-04-27T13:55:38.128Z,611.3
2023-04-27T13:56:44.860Z,612.2
2023-04-27T13:57:51.561Z,612.7
2023-04-27T13:58:58.371Z,611.8
2023-04-27T14:00:05.066Z,612.8
2023-04-27T14:01:11.779Z,612.5
2023-04-27T14:02:18.497Z,611.4
2023-04-27T14:03:25.158Z,611.8
2023-04-27T14:04:31.934Z,612.4
2023-04-27T14:05:38.676Z,611.1
2023-04-27T14:06:45.460Z,611.4
2023-04-27T14:07:52.109Z,612.9
2023-04-27T14:10:05.627Z,612.7
2023-04-27T14:11:12.276Z,612.5
2023-04-27T14:12:19.045Z,611.9
2023-04-27T14:13:25.796Z,611
2023-04-27T14:14:32.525Z,610.6
2023-04-27T14:15:39.199Z,611.6
2023-04-27T14:16:46.048Z,611.7
2023-04-27T14:17:52.675Z,610.2
2023-04-27T14:20:04.862Z,611
2023-04-27T14:21:43.656Z,610.4
2023-04-27T14:23:22.318Z,609.5
2023-04-27T14:24:59.965Z,610
2023-04-27T14:26:07.181Z,608.5
2023-04-27T14:27:45.911Z,610.8
2023-04-27T14:29:24.660Z,610
2023-04-27T14:31:03.472Z,610.5
2023-04-27T14:32:42.176Z,609.4
2023-04-27T14:34:20.870Z,609.9
2023-04-27T14:35:59.681Z,609.7
2023-04-27T14:37:38.351Z,610.2
2023-04-27T14:39:17.170Z,609.4
2023-04-27T14:41:27.969Z,610.3
2023-04-27T14:43:23.639Z,610.3
2023-04-27T14:44:30.380Z,609.4
2023-04-27T14:45:37.078Z,607.1
2023-04-27T14:46:43.799Z,609.4
2023-04-27T14:47:50.580Z,609.4
2023-04-27T14:48:57.368Z,610.5
2023-04-27T14:50:04.128Z,607.9
2023-04-27T14:51:10.915Z,609
2023-04-27T14:52:17.636Z,608.4
2023-04-27T14:53:24.416Z,608.9
2023-04-27T14:54:31.195Z,609
2023-04-27T14:55:37.983Z,609.6
2023-04-27T14:56:44.754Z,607.6
2023-04-27T14:57:51.531Z,608.4
2023-04-27T14:58:58.259Z,608.3
2023-04-27T15:00:05.035Z,609.5
2023-04-27T15:01:11.810Z,608.7
2023-04-27T15:03:25.367Z,609.2
2023-04-27T15:04:32.086Z,609
2023-04-27T15:05:38.889Z,608.7
2023-04-27T15:06:45.646Z,609.3
2023-04-27T15:07:52.427Z,608
2023-04-27T15:08:59.242Z,606.6
2023-04-27T15:10:05.972Z,608.1
2023-04-27T15:12:18.263Z,608
2023-04-27T15:13:56.935Z,609.2
2023-04-27T15:15:04.187Z,608.3
2023-04-27T15:16:11.444Z,607.8
2023-04-27T15:17:50.199Z,607
2023-04-27T15:19:28.982Z,609.7
2023-04-27T15:21:07.673Z,609.3
2023-04-27T15:22:46.413Z,606.4
2023-04-27T15:24:25.168Z,606.9
2023-04-27T15:26:03.892Z,607.7
2023-04-27T15:27:42.643Z,608.5
2023-04-27T15:29:21.498Z,607.5
2023-04-27T15:31:00.149Z,607.4
2023-04-27T15:32:39.866Z,607.2
2023-04-27T15:35:56.377Z,606.7
2023-04-27T15:37:43.212Z,609.1
2023-04-27T15:39:22.021Z,607.6
2023-04-27T15:41:00.683Z,607.4
2023-04-27T15:42:39.435Z,608.2
2023-04-27T15:44:18.208Z,607.8
2023-04-27T15:45:56.916Z,608.4
2023-04-27T15:47:35.648Z,608.5
2023-04-27T15:49:14.391Z,606.9
2023-04-27T15:50:53.168Z,608
2023-04-27T15:52:31.899Z,606.5
2023-04-27T15:54:10.613Z,607.5
2023-04-27T15:55:49.343Z,605.4
2023-04-27T15:56:56.572Z,606.5
2023-04-27T15:58:03.753Z,606.4
2023-04-27T15:59:42.486Z,606.5
2023-04-27T16:01:21.233Z,605.5
2023-04-27T16:02:59.971Z,607.8
2023-04-27T16:04:38.714Z,604.1
2023-04-27T16:06:17.449Z,607.5
2023-04-27T16:07:56.184Z,606.4
2023-04-27T16:09:34.939Z,606
2023-04-27T16:11:13.649Z,607
2023-04-27T16:12:52.384Z,606.4
2023-04-27T16:13:59.628Z,606
2023-04-27T16:17:00.852Z,606.4
2023-04-27T16:20:17.140Z,606
2023-04-27T16:22:11.960Z,605.9
2023-04-27T16:23:50.701Z,606.2
2023-04-27T16:25:29.456Z,606.4
2023-04-27T16:27:08.154Z,606.5
2023-04-27T16:28:46.922Z,606.5
2023-04-27T16:30:25.786Z,606.9
2023-04-27T16:31:32.943Z,607
2023-04-27T16:32:40.111Z,606.4
2023-04-27T16:34:18.862Z,606
2023-04-27T16:35:57.612Z,605.7
2023-04-27T16:37:36.330Z,604.8
2023-04-27T16:39:15.052Z,606.4
2023-04-27T16:40:53.785Z,606.6
2023-04-27T16:42:32.545Z,604.3
2023-04-27T16:44:11.271Z,605.7
2023-04-27T16:45:50.001Z,607
2023-04-27T16:47:28.738Z,605
2023-04-27T16:48:36.002Z,605.1
2023-04-27T16:49:43.254Z,606
2023-04-27T16:51:21.987Z,605.3
2023-04-27T16:53:00.725Z,605.3
2023-04-27T16:54:39.473Z,606.9
2023-04-27T16:56:18.194Z,604.8
2023-04-27T16:57:56.959Z,606.4
2023-04-27T17:02:04.990Z,605.2
2023-04-27T17:05:02.543Z,606.6
2023-04-27T17:06:09.312Z,606.7
2023-04-27T17:07:16.117Z,605.4
2023-04-27T17:08:22.808Z,604.3
2023-04-27T17:10:36.269Z,605
2023-04-27T17:11:42.974Z,604.9
2023-04-27T17:12:49.689Z,605.7
2023-04-27T17:13:56.428Z,603.9
2023-04-27T17:15:03.133Z,605.4
2023-04-27T17:16:09.859Z,605.7
2023-04-27T17:17:16.584Z,605.5
2023-04-27T17:18:23.299Z,602.6
2023-04-27T17:19:30.031Z,604.6
2023-04-27T17:20:36.739Z,606
2023-04-27T17:21:43.450Z,607.3
2023-04-27T17:22:50.176Z,605.2
2023-04-27T17:23:56.956Z,603.9
2023-04-27T17:25:03.638Z,606
2023-04-27T17:26:10.353Z,604.8
2023-04-27T17:27:17.069Z,605.8
2023-04-27T17:28:23.775Z,606.8
2023-04-27T17:29:30.514Z,605.4
2023-04-27T17:30:37.274Z,604.5
2023-04-27T17:31:44.055Z,604.4
2023-04-27T17:33:18.122Z,604.4
2023-04-27T17:34:56.861Z,606
2023-04-27T17:36:35.597Z,605
2023-04-27T17:38:14.324Z,604.5
2023-04-27T17:39:53.072Z,603.7
2023-04-27T17:41:00.324Z,604.9
2023-04-27T17:42:07.589Z,604.5
2023-04-27T17:43:46.321Z,606
2023-04-27T17:45:25.064Z,604.8
2023-04-27T17:47:03.812Z,602.7
2023-04-27T17:48:42.550Z,604.8
2023-04-27T17:50:21.289Z,604
2023-04-27T17:52:00.024Z,603.9
2023-04-27T17:56:08.072Z,603.5
2023-04-27T17:57:26.883Z,604.5
2023-04-27T17:59:24.046Z,604.8
2023-04-27T18:00:30.754Z,604.6
2023-04-27T18:01:37.560Z,605.3
2023-04-27T18:02:44.311Z,604.1
2023-04-27T18:03:51.149Z,605
2023-04-27T18:04:57.947Z,605
2023-04-27T18:06:04.665Z,604.7
2023-04-27T18:07:11.418Z,605.6
2023-04-27T18:08:18.246Z,605.6
2023-04-27T18:09:24.979Z,605.2
2023-04-27T18:10:31.759Z,602.9
2023-04-27T18:11:38.549Z,604
2023-04-27T18:12:45.309Z,603
2023-04-27T18:13:52.073Z,603.3
2023-04-27T18:14:58.802Z,603.1
2023-04-27T18:16:05.535Z,603.9
2023-04-27T18:17:12.253Z,602.9
2023-04-27T18:18:18.972Z,602.6
2023-04-27T18:19:25.762Z,603
2023-04-27T18:20:32.421Z,603.7
2023-04-27T18:21:39.250Z,604
2023-04-27T18:22:45.969Z,605.1
2023-04-27T18:23:52.744Z,601.9
2023-04-27T18:24:59.520Z,603.3
2023-04-27T18:27:11.775Z,604.3
2023-04-27T18:28:50.485Z,604.5
2023-04-27T18:30:29.225Z,603.3
2023-04-27T18:32:06.791Z,603.6
2023-04-27T18:33:13.975Z,601.7
2023-04-27T18:34:52.710Z,603.3
2023-04-27T18:36:31.448Z,602.4
2023-04-27T18:38:10.185Z,605.1
2023-04-27T18:39:48.944Z,604.2
2023-04-27T18:41:27.666Z,604.7
2023-04-27T18:43:06.405Z,603.2
2023-04-27T18:44:45.223Z,601.7
2023-04-27T18:46:23.884Z,601
2023-04-27T18:48:34.936Z,603.2
2023-04-27T18:50:32.088Z,602.4
2023-04-27T18:53:47.979Z,604
2023-04-27T18:54:54.774Z,603.5
2023-04-27T18:56:01.560Z,602.9
2023-04-27T18:57:08.335Z,603.4
2023-04-27T18:58:15.037Z,603.5
2023-04-27T18:59:21.820Z,602.6
2023-04-27T19:00:28.570Z,604.6
2023-04-27T19:01:35.349Z,604.1
2023-04-27T19:02:41.963Z,602.3
2023-04-27T19:03:48.830Z,601.9
2023-04-27T19:04:55.574Z,602.7
2023-04-27T19:06:02.283Z,603.2
2023-04-27T19:07:08.958Z,602.8
2023-04-27T19:08:15.767Z,603.5
2023-04-27T19:09:22.282Z,602.7
2023-04-27T19:10:29.116Z,602.2
2023-04-27T19:11:35.870Z,602.3
2023-04-27T19:12:42.450Z,601.9
2023-04-27T19:13:49.361Z,602.6
2023-04-27T19:14:55.886Z,601.6
2023-04-27T19:16:02.653Z,601.6
2023-04-27T19:17:09.366Z,601.8
2023-04-27T19:18:16.052Z,602.2
2023-04-27T19:19:22.788Z,600.1
2023-04-27T19:20:29.527Z,602.1
2023-04-27T19:21:36.729Z,603.6